Portada
METAR-TAF:

METAR-TAF

Aeroports :

Harbin, Xina

latitud: 45-45N, longitud: 126-46E, altitud: 143 m

Observació

L'informe es va fer fa 13 minuts, a les 21:00 UTC
Vent 4 kt del Nord
Temperatura 16°C
Humitat 94%
Pressió 1013 hPa
Visibilitat 10 km o més
sense núvols per sota de 1500 mi sense presència de cumulonimbus.

METAR: ZYHB 142100Z 01002MPS CAVOK 16/15 Q1013 NOSIG

Hora: 05:13 (21:13 UTC)

Pronòstic

L'informe es va fer fa 6 hores i 0 minuts, a les 15:13 UTC
Pronòstic vàlid del 14 a les 18 UTC al 15 a les 18 UTC
Vent 6 kt del Est/Nord-Est
Visibilitat: 6000 m
Núvols disperses a una alçada de 3000 ft

TAF: ZYHB 141513Z 1418/1518 06003MPS 6000 SCT030 TX26/1506Z TN17/1420Z

Observacions i pronòstics meteorològics de més de 4000 aeroports (METAR i TAF).

Les estacions disponibles són els punts grocs i vermells al mapa.

Posi el ratolí al punt desitjat per veure el nom de l'estació.

Feu clic per veure les observacions i els pronòstics meteorològics.

Per canviar el mapa: feu clic els botons verds amb una creu de color negre per apropar; al botó verd amb un guió per allunyar la imatge; o en les fletxes verdes per a mapes adjacents.


METAR-TAF: